sensor_id;sensor_type;location;lat;lon;timestamp;P1;durP1;ratioP1;P2;durP2;ratioP2
7231;SDS011;3657;49.630;11.018;2023-05-20T00:01:09;7.13;;;6.93;;
7231;SDS011;3657;49.630;11.018;2023-05-20T00:03:36;6.83;;;6.53;;
7231;SDS011;3657;49.630;11.018;2023-05-20T00:06:03;7.07;;;6.87;;
7231;SDS011;3657;49.630;11.018;2023-05-20T00:08:29;7.63;;;7.43;;
7231;SDS011;3657;49.630;11.018;2023-05-20T00:10:56;8.60;;;8.10;;
7231;SDS011;3657;49.630;11.018;2023-05-20T00:13:24;7.57;;;7.37;;
7231;SDS011;3657;49.630;11.018;2023-05-20T00:15:51;7.43;;;7.17;;
7231;SDS011;3657;49.630;11.018;2023-05-20T00:18:18;6.60;;;6.40;;
7231;SDS011;3657;49.630;11.018;2023-05-20T00:20:44;6.87;;;6.67;;
7231;SDS011;3657;49.630;11.018;2023-05-20T00:23:11;8.37;;;8.17;;
7231;SDS011;3657;49.630;11.018;2023-05-20T00:25:38;8.13;;;7.90;;
7231;SDS011;3657;49.630;11.018;2023-05-20T00:28:04;7.60;;;7.40;;
7231;SDS011;3657;49.630;11.018;2023-05-20T00:30:33;7.50;;;7.30;;
7231;SDS011;3657;49.630;11.018;2023-05-20T00:32:59;7.73;;;7.47;;
7231;SDS011;3657;49.630;11.018;2023-05-20T00:35:27;8.07;;;7.77;;
7231;SDS011;3657;49.630;11.018;2023-05-20T00:37:54;8.00;;;7.80;;
7231;SDS011;3657;49.630;11.018;2023-05-20T00:40:20;8.00;;;7.80;;
7231;SDS011;3657;49.630;11.018;2023-05-20T00:42:48;8.13;;;7.83;;
7231;SDS011;3657;49.630;11.018;2023-05-20T00:45:15;8.83;;;8.53;;
7231;SDS011;3657;49.630;11.018;2023-05-20T00:47:43;8.00;;;7.70;;
7231;SDS011;3657;49.630;11.018;2023-05-20T00:50:10;8.53;;;8.23;;
7231;SDS011;3657;49.630;11.018;2023-05-20T00:52:37;8.27;;;8.03;;
7231;SDS011;3657;49.630;11.018;2023-05-20T00:55:05;8.70;;;8.40;;
7231;SDS011;3657;49.630;11.018;2023-05-20T00:57:32;9.60;;;9.30;;
7231;SDS011;3657;49.630;11.018;2023-05-20T00:59:59;9.33;;;8.97;;
7231;SDS011;3657;49.630;11.018;2023-05-20T01:02:26;8.73;;;8.43;;
7231;SDS011;3657;49.630;11.018;2023-05-20T01:04:55;8.40;;;8.20;;
7231;SDS011;3657;49.630;11.018;2023-05-20T01:07:22;8.17;;;7.83;;
7231;SDS011;3657;49.630;11.018;2023-05-20T01:09:49;9.23;;;8.93;;
7231;SDS011;3657;49.630;11.018;2023-05-20T01:12:17;8.97;;;8.60;;
7231;SDS011;3657;49.630;11.018;2023-05-20T01:14:48;9.43;;;9.13;;
7231;SDS011;3657;49.630;11.018;2023-05-20T01:17:16;8.83;;;8.60;;
7231;SDS011;3657;49.630;11.018;2023-05-20T01:19:45;9.77;;;9.37;;
7231;SDS011;3657;49.630;11.018;2023-05-20T01:22:15;7.10;;;6.60;;
7231;SDS011;3657;49.630;11.018;2023-05-20T01:24:43;8.83;;;8.53;;
7231;SDS011;3657;49.630;11.018;2023-05-20T01:27:12;10.37;;;9.87;;
7231;SDS011;3657;49.630;11.018;2023-05-20T01:29:39;7.67;;;7.47;;
7231;SDS011;3657;49.630;11.018;2023-05-20T01:32:08;8.40;;;8.00;;
7231;SDS011;3657;49.630;11.018;2023-05-20T01:34:37;7.93;;;7.73;;
7231;SDS011;3657;49.630;11.018;2023-05-20T01:37:05;9.77;;;9.37;;
7231;SDS011;3657;49.630;11.018;2023-05-20T01:39:35;8.23;;;8.03;;
7231;SDS011;3657;49.630;11.018;2023-05-20T01:42:06;8.83;;;8.60;;
7231;SDS011;3657;49.630;11.018;2023-05-20T01:44:34;10.47;;;10.07;;
7231;SDS011;3657;49.630;11.018;2023-05-20T01:47:00;7.90;;;7.70;;
7231;SDS011;3657;49.630;11.018;2023-05-20T01:49:27;9.13;;;8.83;;
7231;SDS011;3657;49.630;11.018;2023-05-20T01:51:54;9.37;;;8.97;;
7231;SDS011;3657;49.630;11.018;2023-05-20T01:54:21;8.97;;;8.67;;
7231;SDS011;3657;49.630;11.018;2023-05-20T01:56:48;9.23;;;8.90;;
7231;SDS011;3657;49.630;11.018;2023-05-20T01:59:16;10.03;;;9.53;;
7231;SDS011;3657;49.630;11.018;2023-05-20T02:01:43;9.30;;;9.00;;
7231;SDS011;3657;49.630;11.018;2023-05-20T02:04:10;10.60;;;10.20;;
7231;SDS011;3657;49.630;11.018;2023-05-20T02:06:36;8.63;;;8.33;;
7231;SDS011;3657;49.630;11.018;2023-05-20T02:09:03;9.20;;;8.90;;
7231;SDS011;3657;49.630;11.018;2023-05-20T02:11:30;8.70;;;8.40;;
7231;SDS011;3657;49.630;11.018;2023-05-20T02:13:57;8.57;;;8.27;;
7231;SDS011;3657;49.630;11.018;2023-05-20T02:16:25;11.03;;;10.53;;
7231;SDS011;3657;49.630;11.018;2023-05-20T02:18:51;9.20;;;8.80;;
7231;SDS011;3657;49.630;11.018;2023-05-20T02:21:18;10.27;;;9.87;;
7231;SDS011;3657;49.630;11.018;2023-05-20T02:23:46;9.13;;;8.77;;
7231;SDS011;3657;49.630;11.018;2023-05-20T02:26:12;9.00;;;8.70;;
7231;SDS011;3657;49.630;11.018;2023-05-20T02:28:39;9.60;;;9.20;;
7231;SDS011;3657;49.630;11.018;2023-05-20T02:31:10;8.80;;;8.47;;
7231;SDS011;3657;49.630;11.018;2023-05-20T02:33:38;9.10;;;8.80;;
7231;SDS011;3657;49.630;11.018;2023-05-20T02:36:05;9.10;;;8.80;;
7231;SDS011;3657;49.630;11.018;2023-05-20T02:38:32;9.10;;;8.37;;
7231;SDS011;3657;49.630;11.018;2023-05-20T02:40:59;9.67;;;9.37;;
7231;SDS011;3657;49.630;11.018;2023-05-20T02:43:25;9.60;;;9.30;;
7231;SDS011;3657;49.630;11.018;2023-05-20T02:45:52;9.37;;;9.07;;
7231;SDS011;3657;49.630;11.018;2023-05-20T02:48:19;10.07;;;9.77;;
7231;SDS011;3657;49.630;11.018;2023-05-20T02:50:46;9.43;;;9.13;;
7231;SDS011;3657;49.630;11.018;2023-05-20T02:53:13;9.50;;;9.20;;
7231;SDS011;3657;49.630;11.018;2023-05-20T02:55:40;9.23;;;8.93;;
7231;SDS011;3657;49.630;11.018;2023-05-20T02:58:06;11.37;;;10.97;;
7231;SDS011;3657;49.630;11.018;2023-05-20T03:00:33;9.13;;;8.83;;
7231;SDS011;3657;49.630;11.018;2023-05-20T03:03:04;10.00;;;9.70;;
7231;SDS011;3657;49.630;11.018;2023-05-20T03:05:31;9.17;;;8.87;;
7231;SDS011;3657;49.630;11.018;2023-05-20T03:08:02;10.27;;;9.87;;
7231;SDS011;3657;49.630;11.018;2023-05-20T03:10:29;11.23;;;10.83;;
7231;SDS011;3657;49.630;11.018;2023-05-20T03:12:56;10.90;;;10.50;;
7231;SDS011;3657;49.630;11.018;2023-05-20T03:15:22;9.83;;;9.53;;
7231;SDS011;3657;49.630;11.018;2023-05-20T03:17:49;11.10;;;10.77;;
7231;SDS011;3657;49.630;11.018;2023-05-20T03:20:16;8.83;;;8.50;;
7231;SDS011;3657;49.630;11.018;2023-05-20T03:22:42;11.87;;;11.47;;
7231;SDS011;3657;49.630;11.018;2023-05-20T03:25:10;11.23;;;10.83;;
7231;SDS011;3657;49.630;11.018;2023-05-20T03:27:37;11.27;;;10.87;;
7231;SDS011;3657;49.630;11.018;2023-05-20T03:30:04;10.63;;;10.17;;
7231;SDS011;3657;49.630;11.018;2023-05-20T03:32:32;10.87;;;10.47;;
7231;SDS011;3657;49.630;11.018;2023-05-20T03:34:58;9.07;;;8.77;;
7231;SDS011;3657;49.630;11.018;2023-05-20T03:37:25;9.63;;;9.33;;
7231;SDS011;3657;49.630;11.018;2023-05-20T03:39:52;11.20;;;10.87;;
7231;SDS011;3657;49.630;11.018;2023-05-20T03:42:20;8.80;;;8.50;;
7231;SDS011;3657;49.630;11.018;2023-05-20T03:44:46;9.10;;;8.80;;
7231;SDS011;3657;49.630;11.018;2023-05-20T03:47:13;10.07;;;9.77;;
7231;SDS011;3657;49.630;11.018;2023-05-20T03:49:40;9.17;;;8.87;;
7231;SDS011;3657;49.630;11.018;2023-05-20T03:52:06;10.50;;;10.10;;
7231;SDS011;3657;49.630;11.018;2023-05-20T03:54:33;9.50;;;9.20;;
7231;SDS011;3657;49.630;11.018;2023-05-20T03:57:00;8.97;;;8.67;;
7231;SDS011;3657;49.630;11.018;2023-05-20T03:59:28;8.83;;;8.53;;
7231;SDS011;3657;49.630;11.018;2023-05-20T04:01:55;9.00;;;8.70;;
7231;SDS011;3657;49.630;11.018;2023-05-20T04:04:22;8.70;;;8.40;;
7231;SDS011;3657;49.630;11.018;2023-05-20T04:06:48;12.73;;;12.23;;
7231;SDS011;3657;49.630;11.018;2023-05-20T04:09:15;9.07;;;8.77;;
7231;SDS011;3657;49.630;11.018;2023-05-20T04:11:41;8.20;;;8.00;;
7231;SDS011;3657;49.630;11.018;2023-05-20T04:14:08;8.70;;;8.40;;
7231;SDS011;3657;49.630;11.018;2023-05-20T04:16:36;9.70;;;9.30;;
7231;SDS011;3657;49.630;11.018;2023-05-20T04:19:03;11.80;;;11.40;;
7231;SDS011;3657;49.630;11.018;2023-05-20T04:21:30;12.77;;;12.37;;
7231;SDS011;3657;49.630;11.018;2023-05-20T04:23:56;10.10;;;9.80;;
7231;SDS011;3657;49.630;11.018;2023-05-20T04:26:23;9.67;;;9.37;;
7231;SDS011;3657;49.630;11.018;2023-05-20T04:28:50;11.00;;;10.53;;
7231;SDS011;3657;49.630;11.018;2023-05-20T04:31:16;11.33;;;10.93;;
7231;SDS011;3657;49.630;11.018;2023-05-20T04:33:46;12.47;;;12.00;;
7231;SDS011;3657;49.630;11.018;2023-05-20T04:36:12;9.73;;;9.33;;
7231;SDS011;3657;49.630;11.018;2023-05-20T04:38:40;9.13;;;8.83;;
7231;SDS011;3657;49.630;11.018;2023-05-20T04:41:08;11.70;;;11.30;;
7231;SDS011;3657;49.630;11.018;2023-05-20T04:43:35;12.47;;;12.03;;
7231;SDS011;3657;49.630;11.018;2023-05-20T04:46:04;11.13;;;10.63;;
7231;SDS011;3657;49.630;11.018;2023-05-20T04:48:31;11.47;;;10.97;;
7231;SDS011;3657;49.630;11.018;2023-05-20T04:50:59;13.00;;;12.50;;
7231;SDS011;3657;49.630;11.018;2023-05-20T04:53:26;11.23;;;10.83;;
7231;SDS011;3657;49.630;11.018;2023-05-20T04:55:54;13.03;;;12.43;;
7231;SDS011;3657;49.630;11.018;2023-05-20T04:58:21;13.00;;;12.43;;
7231;SDS011;3657;49.630;11.018;2023-05-20T05:00:49;11.83;;;11.40;;
7231;SDS011;3657;49.630;11.018;2023-05-20T05:03:16;11.53;;;11.03;;
7231;SDS011;3657;49.630;11.018;2023-05-20T05:05:43;12.70;;;12.10;;
7231;SDS011;3657;49.630;11.018;2023-05-20T05:08:11;13.40;;;12.90;;
7231;SDS011;3657;49.630;11.018;2023-05-20T05:10:38;13.73;;;13.03;;
7231;SDS011;3657;49.630;11.018;2023-05-20T05:13:05;11.80;;;11.40;;
7231;SDS011;3657;49.630;11.018;2023-05-20T05:15:31;12.97;;;12.47;;
7231;SDS011;3657;49.630;11.018;2023-05-20T05:17:58;13.73;;;13.13;;
7231;SDS011;3657;49.630;11.018;2023-05-20T05:20:25;13.77;;;13.23;;
7231;SDS011;3657;49.630;11.018;2023-05-20T05:22:51;14.50;;;13.90;;
7231;SDS011;3657;49.630;11.018;2023-05-20T05:25:19;12.43;;;11.93;;
7231;SDS011;3657;49.630;11.018;2023-05-20T05:27:46;14.23;;;13.63;;
7231;SDS011;3657;49.630;11.018;2023-05-20T05:30:14;12.73;;;12.23;;
7231;SDS011;3657;49.630;11.018;2023-05-20T05:32:41;15.00;;;14.30;;
7231;SDS011;3657;49.630;11.018;2023-05-20T05:35:08;12.37;;;11.90;;
7231;SDS011;3657;49.630;11.018;2023-05-20T05:37:35;15.27;;;14.47;;
7231;SDS011;3657;49.630;11.018;2023-05-20T05:40:01;12.90;;;12.47;;
7231;SDS011;3657;49.630;11.018;2023-05-20T05:42:30;15.77;;;14.77;;
7231;SDS011;3657;49.630;11.018;2023-05-20T05:44:56;13.10;;;12.50;;
7231;SDS011;3657;49.630;11.018;2023-05-20T05:47:23;14.27;;;13.57;;
7231;SDS011;3657;49.630;11.018;2023-05-20T05:49:53;13.13;;;12.63;;
7231;SDS011;3657;49.630;11.018;2023-05-20T05:52:20;12.20;;;11.80;;
7231;SDS011;3657;49.630;11.018;2023-05-20T05:54:47;13.73;;;13.03;;
7231;SDS011;3657;49.630;11.018;2023-05-20T05:57:13;14.57;;;13.97;;
7231;SDS011;3657;49.630;11.018;2023-05-20T05:59:41;14.97;;;14.37;;
7231;SDS011;3657;49.630;11.018;2023-05-20T06:02:08;13.67;;;13.07;;
7231;SDS011;3657;49.630;11.018;2023-05-20T06:04:35;14.87;;;14.17;;
7231;SDS011;3657;49.630;11.018;2023-05-20T06:07:01;15.27;;;14.53;;
7231;SDS011;3657;49.630;11.018;2023-05-20T06:09:28;14.03;;;13.47;;
7231;SDS011;3657;49.630;11.018;2023-05-20T06:11:55;14.13;;;13.63;;
7231;SDS011;3657;49.630;11.018;2023-05-20T06:14:21;14.07;;;13.17;;
7231;SDS011;3657;49.630;11.018;2023-05-20T06:16:49;13.93;;;13.23;;
7231;SDS011;3657;49.630;11.018;2023-05-20T06:19:16;14.37;;;13.80;;
7231;SDS011;3657;49.630;11.018;2023-05-20T06:21:43;12.87;;;12.37;;
7231;SDS011;3657;49.630;11.018;2023-05-20T06:24:09;14.07;;;13.50;;
7231;SDS011;3657;49.630;11.018;2023-05-20T06:26:36;14.37;;;13.60;;
7231;SDS011;3657;49.630;11.018;2023-05-20T06:29:03;14.43;;;13.83;;
7231;SDS011;3657;49.630;11.018;2023-05-20T06:31:29;13.07;;;12.57;;
7231;SDS011;3657;49.630;11.018;2023-05-20T06:33:57;15.13;;;14.27;;
7231;SDS011;3657;49.630;11.018;2023-05-20T06:36:24;13.50;;;12.80;;
7231;SDS011;3657;49.630;11.018;2023-05-20T06:38:52;14.23;;;13.37;;
7231;SDS011;3657;49.630;11.018;2023-05-20T06:41:18;14.20;;;13.60;;
7231;SDS011;3657;49.630;11.018;2023-05-20T06:43:45;13.57;;;13.03;;
7231;SDS011;3657;49.630;11.018;2023-05-20T06:46:12;13.80;;;13.30;;
7231;SDS011;3657;49.630;11.018;2023-05-20T06:48:39;14.20;;;13.60;;
7231;SDS011;3657;49.630;11.018;2023-05-20T06:51:07;13.50;;;12.83;;
7231;SDS011;3657;49.630;11.018;2023-05-20T06:53:34;14.80;;;13.90;;
7231;SDS011;3657;49.630;11.018;2023-05-20T06:56:00;13.97;;;13.27;;
7231;SDS011;3657;49.630;11.018;2023-05-20T06:58:27;13.77;;;13.10;;
7231;SDS011;3657;49.630;11.018;2023-05-20T07:00:54;14.37;;;13.53;;
7231;SDS011;3657;49.630;11.018;2023-05-20T07:03:21;13.87;;;13.27;;
7231;SDS011;3657;49.630;11.018;2023-05-20T07:05:49;13.10;;;12.60;;
7231;SDS011;3657;49.630;11.018;2023-05-20T07:08:17;13.83;;;13.33;;
7231;SDS011;3657;49.630;11.018;2023-05-20T07:10:43;13.77;;;13.07;;
7231;SDS011;3657;49.630;11.018;2023-05-20T07:13:10;14.47;;;13.77;;
7231;SDS011;3657;49.630;11.018;2023-05-20T07:15:37;14.23;;;13.47;;
7231;SDS011;3657;49.630;11.018;2023-05-20T07:18:04;13.10;;;12.60;;
7231;SDS011;3657;49.630;11.018;2023-05-20T07:20:30;14.87;;;14.13;;
7231;SDS011;3657;49.630;11.018;2023-05-20T07:26:04;13.90;;;13.30;;
7231;SDS011;3657;49.630;11.018;2023-05-20T07:28:31;13.90;;;13.30;;
7231;SDS011;3657;49.630;11.018;2023-05-20T07:30:58;14.57;;;13.97;;
7231;SDS011;3657;49.630;11.018;2023-05-20T07:33:25;14.10;;;13.50;;
7231;SDS011;3657;49.630;11.018;2023-05-20T07:35:51;13.97;;;13.37;;
7231;SDS011;3657;49.630;11.018;2023-05-20T07:38:18;12.93;;;12.30;;
7231;SDS011;3657;49.630;11.018;2023-05-20T07:40:46;13.93;;;13.27;;
7231;SDS011;3657;49.630;11.018;2023-05-20T07:43:13;12.80;;;12.30;;
7231;SDS011;3657;49.630;11.018;2023-05-20T07:45:40;14.87;;;14.20;;
7231;SDS011;3657;49.630;11.018;2023-05-20T07:48:07;14.73;;;14.00;;
7231;SDS011;3657;49.630;11.018;2023-05-20T07:50:35;13.40;;;12.90;;
7231;SDS011;3657;49.630;11.018;2023-05-20T07:53:01;12.93;;;12.30;;
7231;SDS011;3657;49.630;11.018;2023-05-20T07:55:28;14.37;;;13.77;;
7231;SDS011;3657;49.630;11.018;2023-05-20T07:57:56;13.20;;;12.70;;
7231;SDS011;3657;49.630;11.018;2023-05-20T08:00:23;14.20;;;13.47;;
7231;SDS011;3657;49.630;11.018;2023-05-20T08:02:49;13.67;;;13.07;;
7231;SDS011;3657;49.630;11.018;2023-05-20T08:05:16;13.47;;;12.87;;
7231;SDS011;3657;49.630;11.018;2023-05-20T08:07:43;13.67;;;13.17;;
7231;SDS011;3657;49.630;11.018;2023-05-20T08:10:10;12.87;;;12.30;;
7231;SDS011;3657;49.630;11.018;2023-05-20T08:12:36;13.37;;;12.87;;
7231;SDS011;3657;49.630;11.018;2023-05-20T08:15:05;14.10;;;13.50;;
7231;SDS011;3657;49.630;11.018;2023-05-20T08:17:32;14.60;;;14.10;;
7231;SDS011;3657;49.630;11.018;2023-05-20T08:20:00;14.43;;;13.83;;
7231;SDS011;3657;49.630;11.018;2023-05-20T08:22:26;14.40;;;13.70;;
7231;SDS011;3657;49.630;11.018;2023-05-20T08:24:53;13.30;;;12.80;;
7231;SDS011;3657;49.630;11.018;2023-05-20T08:27:20;13.10;;;12.60;;
7231;SDS011;3657;49.630;11.018;2023-05-20T08:29:46;14.27;;;13.67;;
7231;SDS011;3657;49.630;11.018;2023-05-20T08:32:14;13.60;;;12.90;;
7231;SDS011;3657;49.630;11.018;2023-05-20T08:34:41;15.07;;;14.37;;
7231;SDS011;3657;49.630;11.018;2023-05-20T08:37:08;13.40;;;12.90;;
7231;SDS011;3657;49.630;11.018;2023-05-20T08:39:34;14.30;;;13.80;;
7231;SDS011;3657;49.630;11.018;2023-05-20T08:42:01;13.00;;;12.50;;
7231;SDS011;3657;49.630;11.018;2023-05-20T08:44:30;14.53;;;13.93;;
7231;SDS011;3657;49.630;11.018;2023-05-20T08:46:58;11.87;;;11.43;;
7231;SDS011;3657;49.630;11.018;2023-05-20T08:49:26;14.20;;;13.50;;
7231;SDS011;3657;49.630;11.018;2023-05-20T08:51:53;12.40;;;11.90;;
7231;SDS011;3657;49.630;11.018;2023-05-20T08:54:20;13.63;;;13.13;;
7231;SDS011;3657;49.630;11.018;2023-05-20T08:56:50;12.73;;;12.23;;
7231;SDS011;3657;49.630;11.018;2023-05-20T08:59:19;12.30;;;11.70;;
7231;SDS011;3657;49.630;11.018;2023-05-20T09:01:47;13.00;;;12.40;;
7231;SDS011;3657;49.630;11.018;2023-05-20T09:04:14;12.53;;;12.03;;
7231;SDS011;3657;49.630;11.018;2023-05-20T09:06:43;12.63;;;12.13;;
7231;SDS011;3657;49.630;11.018;2023-05-20T09:09:10;12.73;;;12.27;;
7231;SDS011;3657;49.630;11.018;2023-05-20T09:11:38;12.60;;;12.10;;
7231;SDS011;3657;49.630;11.018;2023-05-20T09:14:05;13.07;;;12.57;;
7231;SDS011;3657;49.630;11.018;2023-05-20T09:16:32;12.93;;;12.53;;
7231;SDS011;3657;49.630;11.018;2023-05-20T09:18:58;12.83;;;12.27;;
7231;SDS011;3657;49.630;11.018;2023-05-20T09:21:25;12.40;;;11.60;;
7231;SDS011;3657;49.630;11.018;2023-05-20T09:23:54;12.30;;;11.90;;
7231;SDS011;3657;49.630;11.018;2023-05-20T09:26:23;13.17;;;12.63;;
7231;SDS011;3657;49.630;11.018;2023-05-20T09:28:51;12.67;;;12.17;;
7231;SDS011;3657;49.630;11.018;2023-05-20T09:31:18;12.73;;;12.30;;
7231;SDS011;3657;49.630;11.018;2023-05-20T09:33:46;12.67;;;12.27;;
7231;SDS011;3657;49.630;11.018;2023-05-20T09:36:16;11.93;;;11.43;;
7231;SDS011;3657;49.630;11.018;2023-05-20T09:38:44;13.23;;;12.63;;
7231;SDS011;3657;49.630;11.018;2023-05-20T09:41:13;13.30;;;12.70;;
7231;SDS011;3657;49.630;11.018;2023-05-20T09:43:40;12.20;;;11.70;;
7231;SDS011;3657;49.630;11.018;2023-05-20T09:46:07;13.87;;;13.07;;
7231;SDS011;3657;49.630;11.018;2023-05-20T09:48:35;13.30;;;12.70;;
7231;SDS011;3657;49.630;11.018;2023-05-20T09:51:03;12.93;;;12.43;;
7231;SDS011;3657;49.630;11.018;2023-05-20T09:53:30;12.47;;;12.07;;
7231;SDS011;3657;49.630;11.018;2023-05-20T09:55:57;12.93;;;12.40;;
7231;SDS011;3657;49.630;11.018;2023-05-20T09:58:25;11.33;;;10.93;;
7231;SDS011;3657;49.630;11.018;2023-05-20T10:00:53;13.30;;;12.90;;
7231;SDS011;3657;49.630;11.018;2023-05-20T10:03:20;13.00;;;12.40;;
7231;SDS011;3657;49.630;11.018;2023-05-20T10:05:51;12.33;;;11.93;;
7231;SDS011;3657;49.630;11.018;2023-05-20T10:08:45;13.83;;;12.90;;
7231;SDS011;3657;49.630;11.018;2023-05-20T10:11:28;11.90;;;11.43;;
7231;SDS011;3657;49.630;11.018;2023-05-20T10:14:08;13.70;;;12.80;;
7231;SDS011;3657;49.630;11.018;2023-05-20T10:16:49;12.83;;;12.43;;
7231;SDS011;3657;49.630;11.018;2023-05-20T10:19:22;12.30;;;11.73;;
7231;SDS011;3657;49.630;11.018;2023-05-20T10:21:57;13.17;;;12.77;;
7231;SDS011;3657;49.630;11.018;2023-05-20T10:24:29;13.40;;;12.90;;
7231;SDS011;3657;49.630;11.018;2023-05-20T10:26:57;12.70;;;12.10;;
7231;SDS011;3657;49.630;11.018;2023-05-20T10:29:26;12.20;;;11.70;;
7231;SDS011;3657;49.630;11.018;2023-05-20T10:31:53;12.77;;;12.23;;
7231;SDS011;3657;49.630;11.018;2023-05-20T10:34:21;13.57;;;13.07;;
7231;SDS011;3657;49.630;11.018;2023-05-20T10:36:56;13.03;;;12.53;;
7231;SDS011;3657;49.630;11.018;2023-05-20T10:39:24;12.80;;;12.20;;
7231;SDS011;3657;49.630;11.018;2023-05-20T10:42:03;11.50;;;11.10;;
7231;SDS011;3657;49.630;11.018;2023-05-20T10:44:40;13.00;;;12.40;;
7231;SDS011;3657;49.630;11.018;2023-05-20T10:47:07;12.50;;;12.00;;
7231;SDS011;3657;49.630;11.018;2023-05-20T10:49:34;12.83;;;12.17;;
7231;SDS011;3657;49.630;11.018;2023-05-20T10:52:05;13.00;;;12.20;;
7231;SDS011;3657;49.630;11.018;2023-05-20T10:54:34;12.90;;;12.13;;
7231;SDS011;3657;49.630;11.018;2023-05-20T10:57:04;12.87;;;12.30;;
7231;SDS011;3657;49.630;11.018;2023-05-20T10:59:33;12.70;;;12.23;;
7231;SDS011;3657;49.630;11.018;2023-05-20T11:02:02;13.17;;;12.63;;
7231;SDS011;3657;49.630;11.018;2023-05-20T11:04:29;12.50;;;12.00;;
7231;SDS011;3657;49.630;11.018;2023-05-20T11:06:57;13.30;;;12.77;;
7231;SDS011;3657;49.630;11.018;2023-05-20T11:09:23;13.37;;;12.90;;
7231;SDS011;3657;49.630;11.018;2023-05-20T11:11:50;12.53;;;11.93;;
7231;SDS011;3657;49.630;11.018;2023-05-20T11:14:18;12.47;;;11.97;;
7231;SDS011;3657;49.630;11.018;2023-05-20T11:16:49;13.07;;;12.50;;
7231;SDS011;3657;49.630;11.018;2023-05-20T11:19:18;12.27;;;11.87;;
7231;SDS011;3657;49.630;11.018;2023-05-20T11:21:45;13.73;;;13.13;;
7231;SDS011;3657;49.630;11.018;2023-05-20T11:24:12;12.87;;;12.37;;
7231;SDS011;3657;49.630;11.018;2023-05-20T11:26:39;12.63;;;12.13;;
7231;SDS011;3657;49.630;11.018;2023-05-20T11:29:06;11.97;;;11.47;;
7231;SDS011;3657;49.630;11.018;2023-05-20T11:31:33;11.80;;;11.30;;
7231;SDS011;3657;49.630;11.018;2023-05-20T11:34:02;12.50;;;12.00;;
7231;SDS011;3657;49.630;11.018;2023-05-20T11:36:30;12.73;;;12.23;;
7231;SDS011;3657;49.630;11.018;2023-05-20T11:38:57;13.23;;;12.57;;
7231;SDS011;3657;49.630;11.018;2023-05-20T11:41:24;12.77;;;12.30;;
7231;SDS011;3657;49.630;11.018;2023-05-20T11:43:58;13.07;;;12.10;;
7231;SDS011;3657;49.630;11.018;2023-05-20T11:46:25;12.43;;;11.93;;
7231;SDS011;3657;49.630;11.018;2023-05-20T11:48:52;11.83;;;11.43;;
7231;SDS011;3657;49.630;11.018;2023-05-20T11:51:21;11.47;;;10.97;;
7231;SDS011;3657;49.630;11.018;2023-05-20T11:53:50;11.80;;;11.40;;
7231;SDS011;3657;49.630;11.018;2023-05-20T11:56:17;11.30;;;10.97;;
7231;SDS011;3657;49.630;11.018;2023-05-20T11:58:45;12.80;;;12.23;;
7231;SDS011;3657;49.630;11.018;2023-05-20T12:01:12;12.60;;;12.10;;
7231;SDS011;3657;49.630;11.018;2023-05-20T12:03:38;12.77;;;12.27;;
7231;SDS011;3657;49.630;11.018;2023-05-20T12:06:05;11.60;;;11.20;;
7231;SDS011;3657;49.630;11.018;2023-05-20T12:08:32;12.57;;;12.13;;
7231;SDS011;3657;49.630;11.018;2023-05-20T12:11:00;13.50;;;12.90;;
7231;SDS011;3657;49.630;11.018;2023-05-20T12:13:26;12.13;;;11.67;;
7231;SDS011;3657;49.630;11.018;2023-05-20T12:15:53;11.63;;;11.03;;
7231;SDS011;3657;49.630;11.018;2023-05-20T12:18:21;12.60;;;12.20;;
7231;SDS011;3657;49.630;11.018;2023-05-20T12:20:47;12.20;;;11.80;;
7231;SDS011;3657;49.630;11.018;2023-05-20T12:23:14;12.43;;;11.53;;
7231;SDS011;3657;49.630;11.018;2023-05-20T12:25:41;12.07;;;11.57;;
7231;SDS011;3657;49.630;11.018;2023-05-20T12:28:10;12.60;;;12.10;;
7231;SDS011;3657;49.630;11.018;2023-05-20T12:30:37;14.43;;;13.70;;
7231;SDS011;3657;49.630;11.018;2023-05-20T12:33:04;12.77;;;12.27;;
7231;SDS011;3657;49.630;11.018;2023-05-20T12:35:36;13.83;;;13.07;;
7231;SDS011;3657;49.630;11.018;2023-05-20T12:38:03;13.67;;;13.07;;
7231;SDS011;3657;49.630;11.018;2023-05-20T12:40:30;12.73;;;12.23;;
7231;SDS011;3657;49.630;11.018;2023-05-20T12:42:58;12.13;;;11.63;;
7231;SDS011;3657;49.630;11.018;2023-05-20T12:45:26;13.83;;;12.83;;
7231;SDS011;3657;49.630;11.018;2023-05-20T12:47:54;11.73;;;11.20;;
7231;SDS011;3657;49.630;11.018;2023-05-20T12:50:21;12.10;;;11.70;;
7231;SDS011;3657;49.630;11.018;2023-05-20T12:52:49;12.73;;;12.27;;
7231;SDS011;3657;49.630;11.018;2023-05-20T12:55:16;13.27;;;12.77;;
7231;SDS011;3657;49.630;11.018;2023-05-20T12:57:42;11.87;;;11.43;;
7231;SDS011;3657;49.630;11.018;2023-05-20T13:00:10;12.10;;;11.43;;
7231;SDS011;3657;49.630;11.018;2023-05-20T13:02:39;13.87;;;13.37;;
7231;SDS011;3657;49.630;11.018;2023-05-20T13:05:07;13.23;;;12.40;;
7231;SDS011;3657;49.630;11.018;2023-05-20T13:07:34;12.73;;;12.33;;
7231;SDS011;3657;49.630;11.018;2023-05-20T13:10:00;12.90;;;12.40;;
7231;SDS011;3657;49.630;11.018;2023-05-20T13:12:28;12.80;;;12.23;;
7231;SDS011;3657;49.630;11.018;2023-05-20T13:14:55;13.07;;;12.57;;
7231;SDS011;3657;49.630;11.018;2023-05-20T13:17:21;13.87;;;13.03;;
7231;SDS011;3657;49.630;11.018;2023-05-20T13:19:49;12.47;;;11.97;;
7231;SDS011;3657;49.630;11.018;2023-05-20T13:22:16;13.00;;;12.27;;
7231;SDS011;3657;49.630;11.018;2023-05-20T13:24:43;12.67;;;12.17;;
7231;SDS011;3657;49.630;11.018;2023-05-20T13:27:10;12.50;;;12.00;;
7231;SDS011;3657;49.630;11.018;2023-05-20T13:29:37;12.57;;;11.90;;
7231;SDS011;3657;49.630;11.018;2023-05-20T13:32:03;12.60;;;12.10;;
7231;SDS011;3657;49.630;11.018;2023-05-20T13:34:30;11.83;;;11.43;;
7231;SDS011;3657;49.630;11.018;2023-05-20T13:36:58;12.43;;;11.90;;
7231;SDS011;3657;49.630;11.018;2023-05-20T13:39:25;11.67;;;11.17;;
7231;SDS011;3657;49.630;11.018;2023-05-20T13:41:52;12.73;;;12.23;;
7231;SDS011;3657;49.630;11.018;2023-05-20T13:44:19;11.73;;;11.27;;
7231;SDS011;3657;49.630;11.018;2023-05-20T13:46:45;12.30;;;11.80;;
7231;SDS011;3657;49.630;11.018;2023-05-20T13:49:12;12.40;;;11.83;;
7231;SDS011;3657;49.630;11.018;2023-05-20T13:51:39;12.10;;;11.50;;
7231;SDS011;3657;49.630;11.018;2023-05-20T13:54:07;11.87;;;11.43;;
7231;SDS011;3657;49.630;11.018;2023-05-20T13:56:34;11.77;;;11.37;;
7231;SDS011;3657;49.630;11.018;2023-05-20T13:59:01;11.67;;;11.03;;
7231;SDS011;3657;49.630;11.018;2023-05-20T14:01:28;12.93;;;12.43;;
7231;SDS011;3657;49.630;11.018;2023-05-20T14:03:56;12.90;;;12.33;;
7231;SDS011;3657;49.630;11.018;2023-05-20T14:06:23;12.20;;;11.80;;
7231;SDS011;3657;49.630;11.018;2023-05-20T14:08:52;11.97;;;11.57;;
7231;SDS011;3657;49.630;11.018;2023-05-20T14:11:21;11.40;;;11.00;;
7231;SDS011;3657;49.630;11.018;2023-05-20T14:13:48;11.73;;;11.33;;
7231;SDS011;3657;49.630;11.018;2023-05-20T14:16:14;12.57;;;12.17;;
7231;SDS011;3657;49.630;11.018;2023-05-20T14:18:41;12.40;;;11.90;;
7231;SDS011;3657;49.630;11.018;2023-05-20T14:21:08;12.67;;;12.17;;
7231;SDS011;3657;49.630;11.018;2023-05-20T14:23:34;11.70;;;11.30;;
7231;SDS011;3657;49.630;11.018;2023-05-20T14:26:01;12.50;;;11.90;;
7231;SDS011;3657;49.630;11.018;2023-05-20T14:28:29;11.70;;;11.30;;
7231;SDS011;3657;49.630;11.018;2023-05-20T14:30:55;12.33;;;11.83;;
7231;SDS011;3657;49.630;11.018;2023-05-20T14:33:22;11.63;;;11.17;;
7231;SDS011;3657;49.630;11.018;2023-05-20T14:35:49;11.00;;;10.47;;
7231;SDS011;3657;49.630;11.018;2023-05-20T14:38:15;11.13;;;10.73;;
7231;SDS011;3657;49.630;11.018;2023-05-20T14:40:43;11.77;;;11.37;;
7231;SDS011;3657;49.630;11.018;2023-05-20T14:43:10;11.43;;;11.03;;
7231;SDS011;3657;49.630;11.018;2023-05-20T14:45:38;10.37;;;10.07;;